sensor_id;sensor_type;location;lat;lon;timestamp;temperature;humidity
13148;DHT22;6639;50.956;4.242;2022-12-11T00:00:25;6.40;99.90
13148;DHT22;6639;50.956;4.242;2022-12-11T00:02:52;6.30;99.90
13148;DHT22;6639;50.956;4.242;2022-12-11T00:05:19;6.00;99.90
13148;DHT22;6639;50.956;4.242;2022-12-11T00:07:47;5.80;99.90
13148;DHT22;6639;50.956;4.242;2022-12-11T00:10:14;6.30;99.90
13148;DHT22;6639;50.956;4.242;2022-12-11T00:12:41;6.00;99.90
13148;DHT22;6639;50.956;4.242;2022-12-11T00:15:09;5.90;99.90
13148;DHT22;6639;50.956;4.242;2022-12-11T00:17:36;5.20;99.90
13148;DHT22;6639;50.956;4.242;2022-12-11T00:20:04;5.30;99.90
13148;DHT22;6639;50.956;4.242;2022-12-11T00:22:31;5.60;99.90
13148;DHT22;6639;50.956;4.242;2022-12-11T00:24:59;6.20;99.90
13148;DHT22;6639;50.956;4.242;2022-12-11T00:27:26;6.60;99.90
13148;DHT22;6639;50.956;4.242;2022-12-11T00:29:53;6.90;99.90
13148;DHT22;6639;50.956;4.242;2022-12-11T00:32:20;6.10;99.90
13148;DHT22;6639;50.956;4.242;2022-12-11T00:34:47;5.90;99.90
13148;DHT22;6639;50.956;4.242;2022-12-11T00:37:14;5.10;99.90
13148;DHT22;6639;50.956;4.242;2022-12-11T00:39:41;5.20;99.90
13148;DHT22;6639;50.956;4.242;2022-12-11T00:42:09;5.40;99.90
13148;DHT22;6639;50.956;4.242;2022-12-11T00:44:36;5.90;99.90
13148;DHT22;6639;50.956;4.242;2022-12-11T00:47:03;6.30;99.90
13148;DHT22;6639;50.956;4.242;2022-12-11T00:49:31;6.30;99.90
13148;DHT22;6639;50.956;4.242;2022-12-11T00:51:57;6.00;99.90
13148;DHT22;6639;50.956;4.242;2022-12-11T00:54:24;5.60;99.90
13148;DHT22;6639;50.956;4.242;2022-12-11T00:56:51;5.60;99.90
13148;DHT22;6639;50.956;4.242;2022-12-11T00:59:22;5.70;99.90
13148;DHT22;6639;50.956;4.242;2022-12-11T01:01:49;5.80;99.90
13148;DHT22;6639;50.956;4.242;2022-12-11T01:04:16;6.10;99.90
13148;DHT22;6639;50.956;4.242;2022-12-11T01:06:43;6.70;99.90
13148;DHT22;6639;50.956;4.242;2022-12-11T01:09:10;7.20;99.90
13148;DHT22;6639;50.956;4.242;2022-12-11T01:11:54;7.70;99.90
13148;DHT22;6639;50.956;4.242;2022-12-11T01:14:23;7.60;99.90
13148;DHT22;6639;50.956;4.242;2022-12-11T01:16:50;7.20;99.90
13148;DHT22;6639;50.956;4.242;2022-12-11T01:19:16;7.50;99.90
13148;DHT22;6639;50.956;4.242;2022-12-11T01:21:43;7.30;99.90
13148;DHT22;6639;50.956;4.242;2022-12-11T01:24:10;7.50;99.90
13148;DHT22;6639;50.956;4.242;2022-12-11T01:26:37;7.90;99.90
13148;DHT22;6639;50.956;4.242;2022-12-11T01:29:04;7.60;99.90
13148;DHT22;6639;50.956;4.242;2022-12-11T01:31:32;7.90;99.90
13148;DHT22;6639;50.956;4.242;2022-12-11T01:33:59;8.10;99.90
13148;DHT22;6639;50.956;4.242;2022-12-11T01:36:26;8.00;99.90
13148;DHT22;6639;50.956;4.242;2022-12-11T01:38:53;8.30;99.90
13148;DHT22;6639;50.956;4.242;2022-12-11T01:41:20;8.30;99.90
13148;DHT22;6639;50.956;4.242;2022-12-11T01:44:02;7.40;99.90
13148;DHT22;6639;50.956;4.242;2022-12-11T01:46:33;7.30;99.90
13148;DHT22;6639;50.956;4.242;2022-12-11T01:49:02;6.50;99.90
13148;DHT22;6639;50.956;4.242;2022-12-11T01:51:32;6.50;99.90
13148;DHT22;6639;50.956;4.242;2022-12-11T01:54:06;7.10;99.90
13148;DHT22;6639;50.956;4.242;2022-12-11T01:56:35;7.30;99.90
13148;DHT22;6639;50.956;4.242;2022-12-11T01:59:05;7.40;99.90
13148;DHT22;6639;50.956;4.242;2022-12-11T02:01:38;6.90;99.90
13148;DHT22;6639;50.956;4.242;2022-12-11T02:04:07;6.90;99.90
13148;DHT22;6639;50.956;4.242;2022-12-11T02:06:39;6.60;99.90
13148;DHT22;6639;50.956;4.242;2022-12-11T02:09:09;7.00;99.90
13148;DHT22;6639;50.956;4.242;2022-12-11T02:11:45;7.40;99.90
13148;DHT22;6639;50.956;4.242;2022-12-11T02:14:19;7.80;99.90
13148;DHT22;6639;50.956;4.242;2022-12-11T02:16:55;7.30;99.90
13148;DHT22;6639;50.956;4.242;2022-12-11T02:22:42;7.70;99.90
13148;DHT22;6639;50.956;4.242;2022-12-11T02:25:17;7.60;99.90
13148;DHT22;6639;50.956;4.242;2022-12-11T02:27:50;8.00;99.90
13148;DHT22;6639;50.956;4.242;2022-12-11T02:30:23;8.20;99.90
13148;DHT22;6639;50.956;4.242;2022-12-11T02:32:54;8.10;99.90
13148;DHT22;6639;50.956;4.242;2022-12-11T02:35:24;7.90;99.90
13148;DHT22;6639;50.956;4.242;2022-12-11T02:37:56;8.20;99.90
13148;DHT22;6639;50.956;4.242;2022-12-11T02:40:26;8.40;99.90
13148;DHT22;6639;50.956;4.242;2022-12-11T02:42:57;8.60;99.90
13148;DHT22;6639;50.956;4.242;2022-12-11T02:45:27;8.60;99.90
13148;DHT22;6639;50.956;4.242;2022-12-11T02:47:55;8.20;99.90
13148;DHT22;6639;50.956;4.242;2022-12-11T02:50:25;8.20;99.90
13148;DHT22;6639;50.956;4.242;2022-12-11T02:52:54;8.10;99.90
13148;DHT22;6639;50.956;4.242;2022-12-11T02:55:22;8.30;99.90
13148;DHT22;6639;50.956;4.242;2022-12-11T02:57:55;8.80;99.90
13148;DHT22;6639;50.956;4.242;2022-12-11T03:00:24;9.00;99.90
13148;DHT22;6639;50.956;4.242;2022-12-11T03:02:53;8.70;99.90
13148;DHT22;6639;50.956;4.242;2022-12-11T03:05:20;8.80;99.90
13148;DHT22;6639;50.956;4.242;2022-12-11T03:07:47;8.30;99.90
13148;DHT22;6639;50.956;4.242;2022-12-11T03:10:16;8.30;99.90
13148;DHT22;6639;50.956;4.242;2022-12-11T03:12:46;8.00;99.90
13148;DHT22;6639;50.956;4.242;2022-12-11T03:15:16;8.30;99.90
13148;DHT22;6639;50.956;4.242;2022-12-11T03:17:49;8.50;99.90
13148;DHT22;6639;50.956;4.242;2022-12-11T03:20:32;8.60;99.90
13148;DHT22;6639;50.956;4.242;2022-12-11T03:23:06;8.20;99.90
13148;DHT22;6639;50.956;4.242;2022-12-11T03:25:52;7.50;99.90
13148;DHT22;6639;50.956;4.242;2022-12-11T03:28:23;7.30;99.90
13148;DHT22;6639;50.956;4.242;2022-12-11T03:30:51;7.30;99.90
13148;DHT22;6639;50.956;4.242;2022-12-11T03:33:21;7.50;99.90
13148;DHT22;6639;50.956;4.242;2022-12-11T03:35:53;7.30;99.90
13148;DHT22;6639;50.956;4.242;2022-12-11T03:38:24;7.40;99.90
13148;DHT22;6639;50.956;4.242;2022-12-11T03:40:54;7.50;99.90
13148;DHT22;6639;50.956;4.242;2022-12-11T03:43:23;7.60;99.90
13148;DHT22;6639;50.956;4.242;2022-12-11T03:45:52;7.50;99.90
13148;DHT22;6639;50.956;4.242;2022-12-11T03:48:20;7.00;99.90
13148;DHT22;6639;50.956;4.242;2022-12-11T03:50:50;7.00;99.90
13148;DHT22;6639;50.956;4.242;2022-12-11T03:53:18;7.50;99.90
13148;DHT22;6639;50.956;4.242;2022-12-11T03:55:47;7.50;99.90
13148;DHT22;6639;50.956;4.242;2022-12-11T03:58:15;7.40;99.90
13148;DHT22;6639;50.956;4.242;2022-12-11T04:00:43;7.50;99.90
13148;DHT22;6639;50.956;4.242;2022-12-11T04:03:10;7.50;99.90
13148;DHT22;6639;50.956;4.242;2022-12-11T04:05:41;7.70;99.90
13148;DHT22;6639;50.956;4.242;2022-12-11T04:08:10;7.80;99.90
13148;DHT22;6639;50.956;4.242;2022-12-11T04:10:37;8.30;99.90
13148;DHT22;6639;50.956;4.242;2022-12-11T04:13:04;8.40;99.90
13148;DHT22;6639;50.956;4.242;2022-12-11T04:15:31;8.30;99.90
13148;DHT22;6639;50.956;4.242;2022-12-11T04:17:57;8.10;99.90
13148;DHT22;6639;50.956;4.242;2022-12-11T04:20:41;8.40;99.90
13148;DHT22;6639;50.956;4.242;2022-12-11T04:23:27;8.60;99.90
13148;DHT22;6639;50.956;4.242;2022-12-11T04:26:14;8.80;99.90
13148;DHT22;6639;50.956;4.242;2022-12-11T04:28:42;8.80;99.90
13148;DHT22;6639;50.956;4.242;2022-12-11T04:31:10;8.40;99.90
13148;DHT22;6639;50.956;4.242;2022-12-11T04:33:38;8.60;99.90
13148;DHT22;6639;50.956;4.242;2022-12-11T04:36:06;8.40;99.90
13148;DHT22;6639;50.956;4.242;2022-12-11T04:38:35;8.20;99.90
13148;DHT22;6639;50.956;4.242;2022-12-11T04:41:04;8.20;99.90
13148;DHT22;6639;50.956;4.242;2022-12-11T04:43:31;8.40;99.90
13148;DHT22;6639;50.956;4.242;2022-12-11T04:46:02;8.00;99.90
13148;DHT22;6639;50.956;4.242;2022-12-11T04:48:30;7.60;99.90
13148;DHT22;6639;50.956;4.242;2022-12-11T04:50:57;7.30;99.90
13148;DHT22;6639;50.956;4.242;2022-12-11T04:53:24;7.30;99.90
13148;DHT22;6639;50.956;4.242;2022-12-11T04:55:53;7.30;99.90
13148;DHT22;6639;50.956;4.242;2022-12-11T04:58:27;7.30;99.90
13148;DHT22;6639;50.956;4.242;2022-12-11T05:00:54;7.70;99.90
13148;DHT22;6639;50.956;4.242;2022-12-11T05:03:22;8.00;99.90
13148;DHT22;6639;50.956;4.242;2022-12-11T05:05:50;8.00;99.90
13148;DHT22;6639;50.956;4.242;2022-12-11T05:08:20;7.80;99.90
13148;DHT22;6639;50.956;4.242;2022-12-11T05:10:55;7.60;99.90
13148;DHT22;6639;50.956;4.242;2022-12-11T05:13:22;7.70;99.90
13148;DHT22;6639;50.956;4.242;2022-12-11T05:15:50;7.80;99.90
13148;DHT22;6639;50.956;4.242;2022-12-11T05:18:17;7.60;99.90
13148;DHT22;6639;50.956;4.242;2022-12-11T05:20:44;7.60;99.90
13148;DHT22;6639;50.956;4.242;2022-12-11T05:23:11;7.60;99.90
13148;DHT22;6639;50.956;4.242;2022-12-11T05:25:38;7.10;99.90
13148;DHT22;6639;50.956;4.242;2022-12-11T05:28:06;7.60;99.90
13148;DHT22;6639;50.956;4.242;2022-12-11T05:30:33;7.50;99.90
13148;DHT22;6639;50.956;4.242;2022-12-11T05:33:00;7.80;99.90
13148;DHT22;6639;50.956;4.242;2022-12-11T05:35:27;7.60;99.90
13148;DHT22;6639;50.956;4.242;2022-12-11T05:37:54;7.20;99.90
13148;DHT22;6639;50.956;4.242;2022-12-11T05:40:22;7.60;99.90
13148;DHT22;6639;50.956;4.242;2022-12-11T05:42:49;7.90;99.90
13148;DHT22;6639;50.956;4.242;2022-12-11T05:45:18;7.80;99.90
13148;DHT22;6639;50.956;4.242;2022-12-11T05:47:45;7.70;99.90
13148;DHT22;6639;50.956;4.242;2022-12-11T05:50:12;7.80;99.90
13148;DHT22;6639;50.956;4.242;2022-12-11T05:52:39;7.80;99.90
13148;DHT22;6639;50.956;4.242;2022-12-11T05:55:07;7.60;99.90
13148;DHT22;6639;50.956;4.242;2022-12-11T05:57:34;7.80;99.90
13148;DHT22;6639;50.956;4.242;2022-12-11T06:00:01;8.00;99.90
13148;DHT22;6639;50.956;4.242;2022-12-11T06:02:33;8.00;99.90
13148;DHT22;6639;50.956;4.242;2022-12-11T06:05:11;7.60;99.90
13148;DHT22;6639;50.956;4.242;2022-12-11T06:07:38;7.40;99.90
13148;DHT22;6639;50.956;4.242;2022-12-11T06:10:09;7.10;99.90
13148;DHT22;6639;50.956;4.242;2022-12-11T06:12:36;6.70;99.90
13148;DHT22;6639;50.956;4.242;2022-12-11T06:15:04;7.10;99.90
13148;DHT22;6639;50.956;4.242;2022-12-11T06:17:33;6.70;99.90
13148;DHT22;6639;50.956;4.242;2022-12-11T06:20:00;6.30;99.90
13148;DHT22;6639;50.956;4.242;2022-12-11T06:22:27;6.50;99.90
13148;DHT22;6639;50.956;4.242;2022-12-11T06:24:54;6.90;99.90
13148;DHT22;6639;50.956;4.242;2022-12-11T06:27:21;7.00;99.90
13148;DHT22;6639;50.956;4.242;2022-12-11T06:29:48;7.10;99.90
13148;DHT22;6639;50.956;4.242;2022-12-11T06:32:15;7.00;99.90
13148;DHT22;6639;50.956;4.242;2022-12-11T06:34:44;7.10;99.90
13148;DHT22;6639;50.956;4.242;2022-12-11T06:37:11;7.40;99.90
13148;DHT22;6639;50.956;4.242;2022-12-11T06:39:37;7.60;99.90
13148;DHT22;6639;50.956;4.242;2022-12-11T06:42:05;7.60;99.90
13148;DHT22;6639;50.956;4.242;2022-12-11T06:44:32;7.50;99.90
13148;DHT22;6639;50.956;4.242;2022-12-11T06:46:59;7.50;99.90
13148;DHT22;6639;50.956;4.242;2022-12-11T06:49:33;8.00;99.90
13148;DHT22;6639;50.956;4.242;2022-12-11T06:52:02;7.90;99.90
13148;DHT22;6639;50.956;4.242;2022-12-11T06:54:29;8.00;99.90
13148;DHT22;6639;50.956;4.242;2022-12-11T06:56:56;8.10;99.90
13148;DHT22;6639;50.956;4.242;2022-12-11T06:59:23;7.70;99.90
13148;DHT22;6639;50.956;4.242;2022-12-11T07:01:52;7.00;99.90
13148;DHT22;6639;50.956;4.242;2022-12-11T07:04:22;6.90;99.90
13148;DHT22;6639;50.956;4.242;2022-12-11T07:06:55;6.60;99.90
13148;DHT22;6639;50.956;4.242;2022-12-11T07:09:23;6.90;99.90
13148;DHT22;6639;50.956;4.242;2022-12-11T07:11:51;7.10;99.90
13148;DHT22;6639;50.956;4.242;2022-12-11T07:14:18;7.20;99.90
13148;DHT22;6639;50.956;4.242;2022-12-11T07:16:46;7.50;99.90
13148;DHT22;6639;50.956;4.242;2022-12-11T07:19:14;7.50;99.90
13148;DHT22;6639;50.956;4.242;2022-12-11T07:21:42;7.40;99.90
13148;DHT22;6639;50.956;4.242;2022-12-11T07:24:11;7.20;99.90
13148;DHT22;6639;50.956;4.242;2022-12-11T07:26:45;7.50;99.90
13148;DHT22;6639;50.956;4.242;2022-12-11T07:29:12;7.30;99.90
13148;DHT22;6639;50.956;4.242;2022-12-11T07:31:39;6.80;99.90
13148;DHT22;6639;50.956;4.242;2022-12-11T07:34:06;6.80;99.90
13148;DHT22;6639;50.956;4.242;2022-12-11T07:36:34;6.80;99.90
13148;DHT22;6639;50.956;4.242;2022-12-11T07:39:01;7.10;99.90
13148;DHT22;6639;50.956;4.242;2022-12-11T07:41:28;7.10;99.90
13148;DHT22;6639;50.956;4.242;2022-12-11T07:44:00;7.50;99.90
13148;DHT22;6639;50.956;4.242;2022-12-11T07:46:29;7.40;99.90
13148;DHT22;6639;50.956;4.242;2022-12-11T07:48:59;7.40;99.90
13148;DHT22;6639;50.956;4.242;2022-12-11T07:51:29;7.60;99.90
13148;DHT22;6639;50.956;4.242;2022-12-11T07:54:04;7.50;99.90
13148;DHT22;6639;50.956;4.242;2022-12-11T07:56:35;7.90;99.90
13148;DHT22;6639;50.956;4.242;2022-12-11T07:59:05;7.50;99.90
13148;DHT22;6639;50.956;4.242;2022-12-11T08:01:33;7.50;99.90
13148;DHT22;6639;50.956;4.242;2022-12-11T08:04:03;7.50;99.90
13148;DHT22;6639;50.956;4.242;2022-12-11T08:09:40;7.40;99.90
13148;DHT22;6639;50.956;4.242;2022-12-11T08:12:07;7.40;99.90
13148;DHT22;6639;50.956;4.242;2022-12-11T08:14:36;7.50;99.90
13148;DHT22;6639;50.956;4.242;2022-12-11T08:17:05;7.50;99.90
13148;DHT22;6639;50.956;4.242;2022-12-11T08:19:32;7.50;99.90
13148;DHT22;6639;50.956;4.242;2022-12-11T08:22:06;7.70;99.90
13148;DHT22;6639;50.956;4.242;2022-12-11T08:24:33;7.30;99.90
13148;DHT22;6639;50.956;4.242;2022-12-11T08:27:07;6.70;99.90
13148;DHT22;6639;50.956;4.242;2022-12-11T08:29:38;6.00;99.90
13148;DHT22;6639;50.956;4.242;2022-12-11T08:32:05;5.80;99.90
13148;DHT22;6639;50.956;4.242;2022-12-11T08:34:41;6.20;99.90
13148;DHT22;6639;50.956;4.242;2022-12-11T08:37:08;6.90;99.90
13148;DHT22;6639;50.956;4.242;2022-12-11T08:39:35;7.30;99.90
13148;DHT22;6639;50.956;4.242;2022-12-11T08:42:05;7.20;99.90
13148;DHT22;6639;50.956;4.242;2022-12-11T08:44:32;7.30;99.90
13148;DHT22;6639;50.956;4.242;2022-12-11T08:47:03;7.60;99.90
13148;DHT22;6639;50.956;4.242;2022-12-11T08:49:30;7.60;99.90
13148;DHT22;6639;50.956;4.242;2022-12-11T08:52:08;8.00;99.90
13148;DHT22;6639;50.956;4.242;2022-12-11T08:54:36;8.10;99.90
13148;DHT22;6639;50.956;4.242;2022-12-11T08:57:07;7.50;99.90
13148;DHT22;6639;50.956;4.242;2022-12-11T08:59:35;7.40;99.90
13148;DHT22;6639;50.956;4.242;2022-12-11T09:02:04;7.70;99.90
13148;DHT22;6639;50.956;4.242;2022-12-11T09:04:34;7.70;99.90
13148;DHT22;6639;50.956;4.242;2022-12-11T09:07:02;8.20;99.90
13148;DHT22;6639;50.956;4.242;2022-12-11T09:09:29;8.00;99.90
13148;DHT22;6639;50.956;4.242;2022-12-11T09:12:02;8.10;99.90
13148;DHT22;6639;50.956;4.242;2022-12-11T09:14:38;8.10;99.90
13148;DHT22;6639;50.956;4.242;2022-12-11T09:17:21;8.20;99.90
13148;DHT22;6639;50.956;4.242;2022-12-11T09:19:49;8.10;99.90
13148;DHT22;6639;50.956;4.242;2022-12-11T09:22:16;7.70;99.90
13148;DHT22;6639;50.956;4.242;2022-12-11T09:24:43;7.80;99.90
13148;DHT22;6639;50.956;4.242;2022-12-11T09:27:11;8.20;99.90
13148;DHT22;6639;50.956;4.242;2022-12-11T09:29:40;7.80;99.90
13148;DHT22;6639;50.956;4.242;2022-12-11T09:32:07;7.10;99.90
13148;DHT22;6639;50.956;4.242;2022-12-11T09:34:39;7.20;99.90
13148;DHT22;6639;50.956;4.242;2022-12-11T09:37:06;7.80;99.90
13148;DHT22;6639;50.956;4.242;2022-12-11T09:39:38;7.70;99.90
13148;DHT22;6639;50.956;4.242;2022-12-11T09:42:09;8.00;99.90
13148;DHT22;6639;50.956;4.242;2022-12-11T09:44:42;7.80;99.90
13148;DHT22;6639;50.956;4.242;2022-12-11T09:47:20;8.00;99.90
13148;DHT22;6639;50.956;4.242;2022-12-11T09:49:56;7.90;99.90
13148;DHT22;6639;50.956;4.242;2022-12-11T09:52:33;8.30;99.90
13148;DHT22;6639;50.956;4.242;2022-12-11T09:55:14;8.50;99.90
13148;DHT22;6639;50.956;4.242;2022-12-11T09:57:57;8.40;99.90
13148;DHT22;6639;50.956;4.242;2022-12-11T10:00:35;8.40;99.90
13148;DHT22;6639;50.956;4.242;2022-12-11T10:03:45;8.10;99.90
13148;DHT22;6639;50.956;4.242;2022-12-11T10:06:31;7.60;99.90
13148;DHT22;6639;50.956;4.242;2022-12-11T10:09:05;7.50;99.90
13148;DHT22;6639;50.956;4.242;2022-12-11T10:11:42;8.10;99.90
13148;DHT22;6639;50.956;4.242;2022-12-11T10:14:17;8.40;99.90
13148;DHT22;6639;50.956;4.242;2022-12-11T10:16:53;8.10;99.90
13148;DHT22;6639;50.956;4.242;2022-12-11T10:19:28;8.20;99.90
13148;DHT22;6639;50.956;4.242;2022-12-11T10:21:58;8.20;99.90
13148;DHT22;6639;50.956;4.242;2022-12-11T10:24:31;7.90;99.90
13148;DHT22;6639;50.956;4.242;2022-12-11T10:27:14;8.20;99.90
13148;DHT22;6639;50.956;4.242;2022-12-11T10:29:44;8.30;99.90
13148;DHT22;6639;50.956;4.242;2022-12-11T10:32:20;8.50;99.90
13148;DHT22;6639;50.956;4.242;2022-12-11T10:34:50;8.60;99.90
13148;DHT22;6639;50.956;4.242;2022-12-11T10:37:21;8.40;99.90
13148;DHT22;6639;50.956;4.242;2022-12-11T10:39:48;8.10;99.90
13148;DHT22;6639;50.956;4.242;2022-12-11T10:42:18;7.60;99.90
13148;DHT22;6639;50.956;4.242;2022-12-11T10:44:56;7.10;99.90
13148;DHT22;6639;50.956;4.242;2022-12-11T10:47:28;6.80;99.90
13148;DHT22;6639;50.956;4.242;2022-12-11T10:49:59;6.60;99.90
13148;DHT22;6639;50.956;4.242;2022-12-11T10:52:36;7.00;99.90
13148;DHT22;6639;50.956;4.242;2022-12-11T10:55:16;7.50;99.90
13148;DHT22;6639;50.956;4.242;2022-12-11T10:57:54;7.50;99.90
13148;DHT22;6639;50.956;4.242;2022-12-11T11:00:36;7.40;99.90
13148;DHT22;6639;50.956;4.242;2022-12-11T11:03:04;7.50;99.90
13148;DHT22;6639;50.956;4.242;2022-12-11T11:05:36;8.10;99.90
13148;DHT22;6639;50.956;4.242;2022-12-11T11:08:16;8.50;99.90
13148;DHT22;6639;50.956;4.242;2022-12-11T11:10:56;8.40;99.90
13148;DHT22;6639;50.956;4.242;2022-12-11T11:13:26;8.80;99.90
13148;DHT22;6639;50.956;4.242;2022-12-11T11:16:04;8.80;99.90
13148;DHT22;6639;50.956;4.242;2022-12-11T11:18:40;8.80;99.90
13148;DHT22;6639;50.956;4.242;2022-12-11T11:21:15;8.90;99.90
13148;DHT22;6639;50.956;4.242;2022-12-11T11:23:45;8.80;99.90
13148;DHT22;6639;50.956;4.242;2022-12-11T11:26:14;9.00;99.90
13148;DHT22;6639;50.956;4.242;2022-12-11T11:28:49;9.30;99.90
13148;DHT22;6639;50.956;4.242;2022-12-11T11:31:30;9.70;99.90
13148;DHT22;6639;50.956;4.242;2022-12-11T11:33:59;9.80;99.90
13148;DHT22;6639;50.956;4.242;2022-12-11T11:36:31;9.70;99.90
13148;DHT22;6639;50.956;4.242;2022-12-11T11:39:19;9.50;99.90
13148;DHT22;6639;50.956;4.242;2022-12-11T11:41:59;9.60;99.90
13148;DHT22;6639;50.956;4.242;2022-12-11T11:44:35;10.00;99.90
13148;DHT22;6639;50.956;4.242;2022-12-11T11:47:09;9.80;99.90
13148;DHT22;6639;50.956;4.242;2022-12-11T11:49:48;9.50;99.90
13148;DHT22;6639;50.956;4.242;2022-12-11T11:52:23;9.30;99.90
13148;DHT22;6639;50.956;4.242;2022-12-11T11:54:57;9.40;99.90
13148;DHT22;6639;50.956;4.242;2022-12-11T11:57:34;9.30;99.90
13148;DHT22;6639;50.956;4.242;2022-12-11T12:00:16;9.20;99.90
13148;DHT22;6639;50.956;4.242;2022-12-11T12:02:46;9.10;99.90
13148;DHT22;6639;50.956;4.242;2022-12-11T12:05:16;9.20;99.90
13148;DHT22;6639;50.956;4.242;2022-12-11T12:07:58;9.50;99.90
13148;DHT22;6639;50.956;4.242;2022-12-11T12:10:33;9.50;99.90
13148;DHT22;6639;50.956;4.242;2022-12-11T12:13:09;9.60;99.90
13148;DHT22;6639;50.956;4.242;2022-12-11T12:15:45;9.70;99.90
13148;DHT22;6639;50.956;4.242;2022-12-11T12:18:24;9.50;99.90
13148;DHT22;6639;50.956;4.242;2022-12-11T12:21:07;9.30;99.90
13148;DHT22;6639;50.956;4.242;2022-12-11T12:23:55;9.20;99.90
13148;DHT22;6639;50.956;4.242;2022-12-11T12:26:31;9.30;99.90
13148;DHT22;6639;50.956;4.242;2022-12-11T12:29:08;9.30;99.90
13148;DHT22;6639;50.956;4.242;2022-12-11T12:31:55;9.50;99.90
13148;DHT22;6639;50.956;4.242;2022-12-11T12:34:38;9.70;99.90
13148;DHT22;6639;50.956;4.242;2022-12-11T12:37:21;9.80;99.90
13148;DHT22;6639;50.956;4.242;2022-12-11T12:39:58;9.00;99.90
13148;DHT22;6639;50.956;4.242;2022-12-11T12:42:36;8.60;99.90
13148;DHT22;6639;50.956;4.242;2022-12-11T12:45:16;9.00;99.90
13148;DHT22;6639;50.956;4.242;2022-12-11T12:47:48;9.10;99.90
13148;DHT22;6639;50.956;4.242;2022-12-11T12:50:21;9.40;99.90
13148;DHT22;6639;50.956;4.242;2022-12-11T12:52:51;9.40;99.90
13148;DHT22;6639;50.956;4.242;2022-12-11T12:55:22;9.50;99.90
13148;DHT22;6639;50.956;4.242;2022-12-11T12:57:53;9.50;99.90
13148;DHT22;6639;50.956;4.242;2022-12-11T13:00:32;9.30;99.90
13148;DHT22;6639;50.956;4.242;2022-12-11T13:03:12;9.40;99.90
13148;DHT22;6639;50.956;4.242;2022-12-11T13:05:42;9.20;99.90
13148;DHT22;6639;50.956;4.242;2022-12-11T13:08:23;9.60;99.90
13148;DHT22;6639;50.956;4.242;2022-12-11T13:11:00;9.40;99.90
13148;DHT22;6639;50.956;4.242;2022-12-11T13:13:35;9.20;99.90
13148;DHT22;6639;50.956;4.242;2022-12-11T13:16:24;8.90;99.90
13148;DHT22;6639;50.956;4.242;2022-12-11T13:18:53;9.00;99.90
13148;DHT22;6639;50.956;4.242;2022-12-11T13:21:34;8.70;99.90
13148;DHT22;6639;50.956;4.242;2022-12-11T13:24:14;8.50;99.90
13148;DHT22;6639;50.956;4.242;2022-12-11T13:26:50;8.10;99.90
13148;DHT22;6639;50.956;4.242;2022-12-11T13:29:30;8.90;99.90
13148;DHT22;6639;50.956;4.242;2022-12-11T13:32:01;9.00;99.90
13148;DHT22;6639;50.956;4.242;2022-12-11T13:34:34;8.90;99.90
13148;DHT22;6639;50.956;4.242;2022-12-11T13:37:05;8.80;99.90
13148;DHT22;6639;50.956;4.242;2022-12-11T13:39:34;9.00;99.90
13148;DHT22;6639;50.956;4.242;2022-12-11T13:42:07;9.20;99.90
13148;DHT22;6639;50.956;4.242;2022-12-11T13:44:47;9.20;99.90
13148;DHT22;6639;50.956;4.242;2022-12-11T13:47:17;9.40;99.90
13148;DHT22;6639;50.956;4.242;2022-12-11T13:49:49;9.30;99.90
13148;DHT22;6639;50.956;4.242;2022-12-11T13:52:24;9.40;99.90
13148;DHT22;6639;50.956;4.242;2022-12-11T13:54:56;9.20;99.90
13148;DHT22;6639;50.956;4.242;2022-12-11T13:57:25;9.40;99.90
13148;DHT22;6639;50.956;4.242;2022-12-11T13:59:58;9.50;99.90
13148;DHT22;6639;50.956;4.242;2022-12-11T14:02:28;9.70;99.90
13148;DHT22;6639;50.956;4.242;2022-12-11T14:04:57;9.70;99.90
13148;DHT22;6639;50.956;4.242;2022-12-11T14:07:29;9.70;99.90
13148;DHT22;6639;50.956;4.242;2022-12-11T14:10:00;9.60;99.90
13148;DHT22;6639;50.956;4.242;2022-12-11T14:12:29;9.70;99.90
13148;DHT22;6639;50.956;4.242;2022-12-11T14:14:59;9.90;99.90
13148;DHT22;6639;50.956;4.242;2022-12-11T14:17:29;9.70;99.90
13148;DHT22;6639;50.956;4.242;2022-12-11T14:19:58;9.30;99.90
13148;DHT22;6639;50.956;4.242;2022-12-11T14:22:28;9.70;99.90
13148;DHT22;6639;50.956;4.242;2022-12-11T14:24:57;10.00;99.90
13148;DHT22;6639;50.956;4.242;2022-12-11T14:27:28;9.90;99.90
13148;DHT22;6639;50.956;4.242;2022-12-11T14:29:57;9.90;99.90
13148;DHT22;6639;50.956;4.242;2022-12-11T14:32:44;10.20;99.90
13148;DHT22;6639;50.956;4.242;2022-12-11T14:35:21;10.10;99.90
13148;DHT22;6639;50.956;4.242;2022-12-11T14:37:54;9.80;99.90
13148;DHT22;6639;50.956;4.242;2022-12-11T14:40:25;9.80;99.90
13148;DHT22;6639;50.956;4.242;2022-12-11T14:43:02;10.00;99.90
13148;DHT22;6639;50.956;4.242;2022-12-11T14:45:47;9.80;99.90
13148;DHT22;6639;50.956;4.242;2022-12-11T14:48:25;9.30;99.90
13148;DHT22;6639;50.956;4.242;2022-12-11T14:51:00;9.10;99.90
13148;DHT22;6639;50.956;4.242;2022-12-11T14:53:33;9.30;99.90
13148;DHT22;6639;50.956;4.242;2022-12-11T14:56:07;9.90;99.90
13148;DHT22;6639;50.956;4.242;2022-12-11T14:58:39;9.80;99.90
13148;DHT22;6639;50.956;4.242;2022-12-11T15:01:23;9.80;99.90
13148;DHT22;6639;50.956;4.242;2022-12-11T15:04:02;9.60;99.90
13148;DHT22;6639;50.956;4.242;2022-12-11T15:06:31;9.40;99.90
13148;DHT22;6639;50.956;4.242;2022-12-11T15:09:09;9.80;99.90
13148;DHT22;6639;50.956;4.242;2022-12-11T15:11:43;9.40;99.90
13148;DHT22;6639;50.956;4.242;2022-12-11T15:14:11;9.20;99.90
13148;DHT22;6639;50.956;4.242;2022-12-11T15:16:41;9.10;99.90
13148;DHT22;6639;50.956;4.242;2022-12-11T15:19:17;9.10;99.90
13148;DHT22;6639;50.956;4.242;2022-12-11T15:21:44;9.50;99.90
13148;DHT22;6639;50.956;4.242;2022-12-11T15:24:22;9.60;99.90
13148;DHT22;6639;50.956;4.242;2022-12-11T15:26:50;9.80;99.90
13148;DHT22;6639;50.956;4.242;2022-12-11T15:29:25;9.40;99.90
13148;DHT22;6639;50.956;4.242;2022-12-11T15:32:02;9.50;99.90
13148;DHT22;6639;50.956;4.242;2022-12-11T15:34:34;9.90;99.90
13148;DHT22;6639;50.956;4.242;2022-12-11T15:37:01;10.20;99.90
13148;DHT22;6639;50.956;4.242;2022-12-11T15:39:30;10.40;99.90
13148;DHT22;6639;50.956;4.242;2022-12-11T15:41:56;10.70;99.90
13148;DHT22;6639;50.956;4.242;2022-12-11T15:44:24;10.80;99.90
13148;DHT22;6639;50.956;4.242;2022-12-11T15:46:51;10.90;99.90
13148;DHT22;6639;50.956;4.242;2022-12-11T15:49:19;10.90;99.90
13148;DHT22;6639;50.956;4.242;2022-12-11T15:51:49;11.00;99.90
13148;DHT22;6639;50.956;4.242;2022-12-11T15:54:16;10.80;99.90
13148;DHT22;6639;50.956;4.242;2022-12-11T15:56:43;10.80;99.90
13148;DHT22;6639;50.956;4.242;2022-12-11T15:59:10;10.90;99.90
13148;DHT22;6639;50.956;4.242;2022-12-11T16:01:37;11.00;99.90
13148;DHT22;6639;50.956;4.242;2022-12-11T16:04:04;11.10;99.90
13148;DHT22;6639;50.956;4.242;2022-12-11T16:06:33;11.20;99.90
13148;DHT22;6639;50.956;4.242;2022-12-11T16:09:00;11.20;99.90
13148;DHT22;6639;50.956;4.242;2022-12-11T16:11:28;11.30;99.90
13148;DHT22;6639;50.956;4.242;2022-12-11T16:13:55;11.30;99.90
13148;DHT22;6639;50.956;4.242;2022-12-11T16:16:23;11.30;99.90
13148;DHT22;6639;50.956;4.242;2022-12-11T16:18:50;11.40;99.90
13148;DHT22;6639;50.956;4.242;2022-12-11T16:21:17;11.40;99.90
13148;DHT22;6639;50.956;4.242;2022-12-11T16:23:45;11.50;99.90
13148;DHT22;6639;50.956;4.242;2022-12-11T16:26:12;11.50;99.90
13148;DHT22;6639;50.956;4.242;2022-12-11T16:28:40;11.50;99.90
13148;DHT22;6639;50.956;4.242;2022-12-11T16:31:09;11.50;99.90